Time;durP1;ratioP1;P1;durP2;ratioP2;P2;SDS_P1;SDS_P2;PMS_P1;PMS_P2;Temp;Humidity;BMP_temperature;BMP_pressure;BME280_temperature;BME280_humidity;BME280_pressure;Samples;Min_cycle;Max_cycle;Signal;HPM_P1;HPM_P2
2022/06/08 00:01:22;;;;;;;19.97;14.23;;;;;;;;;;5043960;28;20690;-43
2022/06/08 00:03:51;;;;;;;19.47;12.77;;;;;;;;;;5040449;28;20381;-43
2022/06/08 00:06:17;;;;;;;15.97;13.73;;;;;;;;;;5043568;28;20210;-43
2022/06/08 00:08:43;;;;;;;18.73;13.00;;;;;;;;;;5037822;28;20172;-43
2022/06/08 00:11:09;;;;;;;17.47;13.47;;;;;;;;;;5045812;28;20167;-43
2022/06/08 00:13:36;;;;;;;21.73;14.30;;;;;;;;;;5044376;28;20214;-43
2022/06/08 00:16:02;;;;;;;16.53;13.17;;;;;;;;;;5039960;28;20942;-43
2022/06/08 00:18:28;;;;;;;19.30;15.20;;;;;;;;;;5046786;28;20599;-41
2022/06/08 00:20:55;;;;;;;17.43;13.73;;;;;;;;;;5047818;28;20534;-43
2022/06/08 00:23:21;;;;;;;14.67;12.77;;;;;;;;;;5039011;28;20253;-43
2022/06/08 00:25:47;;;;;;;18.77;14.47;;;;;;;;;;5039896;28;20453;-43
2022/06/08 00:28:14;;;;;;;20.10;14.33;;;;;;;;;;5046041;28;20258;-43
2022/06/08 00:30:41;;;;;;;20.90;13.87;;;;;;;;;;5038435;28;20179;-43
2022/06/08 00:33:07;;;;;;;20.07;15.43;;;;;;;;;;5042945;28;20902;-42
2022/06/08 00:35:33;;;;;;;16.40;14.60;;;;;;;;;;5044611;28;20460;-43
2022/06/08 00:37:59;;;;;;;22.50;14.27;;;;;;;;;;5045179;28;20651;-43
2022/06/08 00:40:31;;;;;;;18.73;15.07;;;;;;;;;;5043419;28;20167;-43
2022/06/08 00:42:57;;;;;;;22.83;16.77;;;;;;;;;;5042804;28;20183;-43
2022/06/08 00:45:24;;;;;;;20.70;15.60;;;;;;;;;;5048618;28;20455;-43
2022/06/08 00:47:52;;;;;;;21.37;16.43;;;;;;;;;;5044110;28;20261;-43
2022/06/08 00:50:39;;;;;;;22.07;17.37;;;;;;;;;;5043638;28;20198;-43
2022/06/08 00:53:06;;;;;;;17.37;14.47;;;;;;;;;;5045901;28;20170;-42
2022/06/08 00:55:35;;;;;;;25.17;17.53;;;;;;;;;;5047402;28;20186;-42
2022/06/08 00:58:06;;;;;;;17.83;15.93;;;;;;;;;;5042265;28;21056;-42
2022/06/08 01:00:37;;;;;;;23.27;17.00;;;;;;;;;;5044235;28;20182;-43
2022/06/08 01:03:03;;;;;;;23.03;16.60;;;;;;;;;;5043673;28;20896;-43
2022/06/08 01:05:51;;;;;;;24.40;18.90;;;;;;;;;;5040064;28;20849;-43
2022/06/08 01:08:17;;;;;;;25.63;18.10;;;;;;;;;;5037714;28;20908;-43
2022/06/08 01:10:47;;;;;;;20.97;18.70;;;;;;;;;;5044768;28;20171;-43
2022/06/08 01:13:13;;;;;;;19.90;15.67;;;;;;;;;;5042163;28;20220;-43
2022/06/08 01:15:40;;;;;;;26.93;18.07;;;;;;;;;;5042165;28;20669;-43
2022/06/08 01:18:07;;;;;;;28.60;19.93;;;;;;;;;;5042689;28;20217;-43
2022/06/08 01:20:33;;;;;;;24.93;18.67;;;;;;;;;;5039100;28;20949;-43
2022/06/08 01:23:00;;;;;;;25.90;16.93;;;;;;;;;;5046917;28;20188;-43
2022/06/08 01:25:29;;;;;;;24.63;18.40;;;;;;;;;;5043439;28;20198;-43
2022/06/08 01:28:00;;;;;;;25.03;18.23;;;;;;;;;;5040370;28;20202;-43
2022/06/08 01:30:32;;;;;;;20.70;16.50;;;;;;;;;;5043550;28;20702;-43
2022/06/08 01:33:14;;;;;;;28.17;18.83;;;;;;;;;;5043167;28;20238;-43
2022/06/08 01:35:43;;;;;;;21.97;17.47;;;;;;;;;;5041941;28;20186;-43
2022/06/08 01:38:21;;;;;;;21.10;17.33;;;;;;;;;;5044891;28;20182;-43
2022/06/08 01:40:59;;;;;;;24.93;16.33;;;;;;;;;;5043983;28;20733;-43
2022/06/08 01:43:40;;;;;;;16.23;13.80;;;;;;;;;;5040781;28;20186;-43
2022/06/08 01:46:23;;;;;;;18.87;16.23;;;;;;;;;;5043239;28;20194;-43
2022/06/08 01:49:04;;;;;;;19.43;14.00;;;;;;;;;;5055882;28;20438;-43
2022/06/08 01:51:47;;;;;;;22.40;16.40;;;;;;;;;;5044046;28;20345;-43
2022/06/08 01:54:13;;;;;;;19.80;14.33;;;;;;;;;;5042804;28;20174;-43
2022/06/08 01:56:47;;;;;;;16.47;14.77;;;;;;;;;;5042605;28;20182;-43
2022/06/08 01:59:32;;;;;;;20.47;14.80;;;;;;;;;;5042591;28;20174;-43
2022/06/08 02:01:58;;;;;;;19.37;17.30;;;;;;;;;;5042194;28;20178;-43
2022/06/08 02:04:31;;;;;;;23.63;17.77;;;;;;;;;;5038384;28;20721;-43
2022/06/08 02:06:57;;;;;;;21.43;18.10;;;;;;;;;;5043198;28;20545;-43
2022/06/08 02:09:37;;;;;;;22.33;19.33;;;;;;;;;;5046635;28;20666;-43
2022/06/08 02:12:05;;;;;;;21.47;17.77;;;;;;;;;;5042733;28;20183;-43
2022/06/08 02:14:40;;;;;;;18.03;14.70;;;;;;;;;;5041801;28;20556;-43
2022/06/08 02:17:12;;;;;;;20.90;17.27;;;;;;;;;;5046530;28;20182;-43
2022/06/08 02:19:57;;;;;;;23.73;17.67;;;;;;;;;;5045232;28;20221;-43
2022/06/08 02:22:35;;;;;;;19.60;15.47;;;;;;;;;;5040599;28;20507;-43
2022/06/08 02:25:09;;;;;;;20.17;15.83;;;;;;;;;;5041503;28;20208;-43
2022/06/08 02:27:38;;;;;;;20.97;14.70;;;;;;;;;;5044340;28;20183;-43
2022/06/08 02:30:13;;;;;;;16.80;14.50;;;;;;;;;;5041031;28;20180;-43
2022/06/08 02:35:31;;;;;;;19.50;13.87;;;;;;;;;;5042381;28;20606;-43
2022/06/08 02:38:01;;;;;;;18.90;14.33;;;;;;;;;;5043119;28;20174;-43
2022/06/08 02:40:29;;;;;;;20.13;15.70;;;;;;;;;;5039216;28;20202;-43
2022/06/08 02:42:57;;;;;;;20.00;14.20;;;;;;;;;;5042378;28;20496;-43
2022/06/08 02:45:43;;;;;;;24.43;15.57;;;;;;;;;;5040401;28;20203;-43
2022/06/08 02:48:10;;;;;;;16.60;13.80;;;;;;;;;;5042754;28;20407;-43
2022/06/08 02:50:38;;;;;;;18.93;15.80;;;;;;;;;;5041472;28;20409;-43
2022/06/08 02:53:10;;;;;;;17.60;13.80;;;;;;;;;;5045253;28;20190;-43
2022/06/08 02:56:12;;;;;;;19.63;14.87;;;;;;;;;;5042898;28;20822;-43
2022/06/08 02:59:13;;;;;;;21.80;15.50;;;;;;;;;;4984412;28;20298;-43
2022/06/08 03:01:43;;;;;;;20.43;15.60;;;;;;;;;;4982785;28;20282;-43
2022/06/08 03:04:13;;;;;;;24.00;16.53;;;;;;;;;;5032440;28;20261;-42
2022/06/08 03:06:46;;;;;;;31.77;20.93;;;;;;;;;;5042064;28;20847;-42
2022/06/08 03:09:14;;;;;;;44.53;28.77;;;;;;;;;;5040694;28;20413;-43
2022/06/08 03:11:43;;;;;;;37.57;28.03;;;;;;;;;;5040812;28;20266;-42
2022/06/08 03:14:11;;;;;;;41.40;30.53;;;;;;;;;;5039234;28;20209;-43
2022/06/08 03:16:39;;;;;;;43.90;31.67;;;;;;;;;;5046798;28;20180;-41
2022/06/08 03:19:05;;;;;;;40.30;28.77;;;;;;;;;;5046608;28;20178;-42
2022/06/08 03:21:32;;;;;;;35.60;27.63;;;;;;;;;;5042347;28;20572;-43
2022/06/08 03:23:59;;;;;;;34.93;26.77;;;;;;;;;;5044557;28;20351;-43
2022/06/08 03:26:26;;;;;;;47.73;28.97;;;;;;;;;;5045109;28;20445;-43
2022/06/08 03:28:52;;;;;;;33.63;22.00;;;;;;;;;;5040265;28;20618;-43
2022/06/08 03:31:18;;;;;;;33.53;21.57;;;;;;;;;;5044832;28;20298;-43
2022/06/08 03:33:45;;;;;;;30.73;22.60;;;;;;;;;;5046678;28;20832;-44
2022/06/08 03:36:12;;;;;;;33.97;21.13;;;;;;;;;;5043915;28;20183;-43
2022/06/08 03:38:38;;;;;;;27.53;19.70;;;;;;;;;;5042020;28;20555;-43
2022/06/08 03:41:04;;;;;;;25.50;18.70;;;;;;;;;;5040861;28;20249;-43
2022/06/08 03:43:30;;;;;;;28.63;17.10;;;;;;;;;;5046227;28;20175;-43
2022/06/08 03:45:59;;;;;;;24.20;18.43;;;;;;;;;;5047053;28;20203;-43
2022/06/08 03:48:25;;;;;;;22.50;16.30;;;;;;;;;;5048075;28;20202;-43
2022/06/08 03:50:53;;;;;;;21.17;15.13;;;;;;;;;;5047250;28;20171;-44
2022/06/08 03:53:21;;;;;;;20.57;15.50;;;;;;;;;;5045734;28;20680;-44
2022/06/08 03:55:50;;;;;;;27.03;17.53;;;;;;;;;;5046178;28;20276;-43
2022/06/08 03:58:16;;;;;;;28.30;18.50;;;;;;;;;;5046198;28;20518;-44
2022/06/08 04:00:43;;;;;;;26.50;19.20;;;;;;;;;;5046222;28;20167;-43
2022/06/08 04:03:10;;;;;;;25.40;17.30;;;;;;;;;;5045979;28;20449;-44
2022/06/08 04:05:37;;;;;;;29.00;19.63;;;;;;;;;;5045451;28;20622;-44
2022/06/08 04:08:04;;;;;;;24.23;18.33;;;;;;;;;;5047139;28;20728;-44
2022/06/08 04:10:30;;;;;;;24.60;18.17;;;;;;;;;;5045991;28;20175;-43
2022/06/08 04:12:56;;;;;;;31.17;19.40;;;;;;;;;;5043362;28;20180;-43
2022/06/08 04:18:07;;;;;;;26.97;19.13;;;;;;;;;;5046572;28;20198;-44
2022/06/08 04:20:34;;;;;;;24.57;18.27;;;;;;;;;;5044580;28;20218;-44
2022/06/08 04:23:00;;;;;;;24.23;18.33;;;;;;;;;;5048460;28;20942;-44
2022/06/08 04:25:27;;;;;;;28.80;18.87;;;;;;;;;;5042787;28;20716;-44
2022/06/08 04:27:54;;;;;;;25.80;17.30;;;;;;;;;;5045239;28;20177;-44
2022/06/08 04:30:20;;;;;;;23.50;16.93;;;;;;;;;;5042502;28;20590;-44
2022/06/08 04:32:46;;;;;;;20.50;15.47;;;;;;;;;;5043902;28;20175;-44
2022/06/08 04:35:13;;;;;;;19.37;14.97;;;;;;;;;;5044908;28;20370;-44
2022/06/08 04:37:39;;;;;;;18.03;13.93;;;;;;;;;;5042491;28;20764;-44
2022/06/08 04:40:07;;;;;;;18.20;13.90;;;;;;;;;;5043975;28;20175;-43
2022/06/08 04:42:33;;;;;;;19.37;14.60;;;;;;;;;;5046257;28;20206;-43
2022/06/08 04:44:59;;;;;;;21.83;13.80;;;;;;;;;;5044680;28;20559;-44
2022/06/08 04:47:25;;;;;;;22.17;14.93;;;;;;;;;;5042717;28;20181;-44
2022/06/08 04:49:51;;;;;;;19.40;14.60;;;;;;;;;;5047082;28;20175;-44
2022/06/08 04:52:18;;;;;;;19.37;14.40;;;;;;;;;;5040374;28;20206;-44
2022/06/08 04:54:44;;;;;;;19.83;15.57;;;;;;;;;;5033640;28;20282;-44
2022/06/08 04:57:11;;;;;;;19.90;14.47;;;;;;;;;;5043403;28;20248;-43
2022/06/08 04:59:37;;;;;;;22.80;15.23;;;;;;;;;;5042222;28;20252;-44
2022/06/08 05:02:03;;;;;;;23.50;14.57;;;;;;;;;;5042047;28;20178;-43
2022/06/08 05:04:30;;;;;;;19.07;13.60;;;;;;;;;;5044995;28;20171;-43
2022/06/08 05:06:56;;;;;;;16.77;12.37;;;;;;;;;;5043290;28;20307;-44
2022/06/08 05:09:23;;;;;;;14.30;12.10;;;;;;;;;;5043797;28;20687;-44
2022/06/08 05:11:49;;;;;;;15.40;11.73;;;;;;;;;;5040365;28;20698;-44
2022/06/08 05:14:15;;;;;;;23.20;11.30;;;;;;;;;;5040622;28;20179;-43
2022/06/08 05:16:41;;;;;;;17.43;11.53;;;;;;;;;;5043348;28;20723;-44
2022/06/08 05:19:07;;;;;;;16.27;12.10;;;;;;;;;;5043270;28;20234;-43
2022/06/08 05:21:33;;;;;;;16.97;12.20;;;;;;;;;;5041605;28;20186;-43
2022/06/08 05:24:00;;;;;;;17.43;11.50;;;;;;;;;;5044565;28;20175;-43
2022/06/08 05:26:26;;;;;;;13.93;11.10;;;;;;;;;;5048758;28;20203;-43
2022/06/08 05:28:52;;;;;;;14.87;10.93;;;;;;;;;;5042482;28;20460;-43
2022/06/08 05:31:18;;;;;;;15.20;11.07;;;;;;;;;;5038611;28;20182;-44
2022/06/08 05:33:44;;;;;;;15.23;11.10;;;;;;;;;;5056150;27;20973;-43
2022/06/08 05:36:10;;;;;;;16.73;12.20;;;;;;;;;;5044577;28;20898;-43
2022/06/08 05:38:36;;;;;;;18.20;11.53;;;;;;;;;;5040443;28;20262;-43
2022/06/08 05:41:03;;;;;;;18.37;12.60;;;;;;;;;;5048067;28;20189;-43
2022/06/08 05:43:29;;;;;;;17.07;12.13;;;;;;;;;;5052604;28;20179;-44
2022/06/08 05:45:55;;;;;;;21.23;12.00;;;;;;;;;;5048499;28;20190;-44
2022/06/08 05:48:21;;;;;;;17.67;11.67;;;;;;;;;;5045121;28;20170;-44
2022/06/08 05:50:48;;;;;;;15.37;11.53;;;;;;;;;;5044686;28;20256;-44
2022/06/08 05:53:15;;;;;;;19.37;11.53;;;;;;;;;;5051044;28;20182;-44
2022/06/08 05:55:41;;;;;;;13.20;11.33;;;;;;;;;;5049409;28;20181;-43
2022/06/08 05:58:09;;;;;;;17.10;11.80;;;;;;;;;;5047481;28;20511;-43
2022/06/08 06:00:36;;;;;;;19.07;11.00;;;;;;;;;;5061126;28;20203;-44
2022/06/08 06:03:03;;;;;;;16.63;11.67;;;;;;;;;;5047660;28;20183;-44
2022/06/08 06:05:32;;;;;;;15.60;10.97;;;;;;;;;;5045331;28;20297;-44
2022/06/08 06:07:59;;;;;;;19.07;11.77;;;;;;;;;;5047325;28;20198;-44
2022/06/08 06:10:26;;;;;;;19.73;11.80;;;;;;;;;;5048436;28;20744;-43
2022/06/08 06:12:54;;;;;;;20.63;12.27;;;;;;;;;;5048246;28;20179;-44
2022/06/08 06:15:21;;;;;;;19.90;10.90;;;;;;;;;;5049216;28;20738;-44
2022/06/08 06:17:47;;;;;;;18.03;11.27;;;;;;;;;;5048870;28;20183;-43
2022/06/08 06:20:13;;;;;;;16.87;11.00;;;;;;;;;;5047341;28;20199;-44
2022/06/08 06:22:39;;;;;;;16.97;9.20;;;;;;;;;;5047249;28;20495;-44
2022/06/08 06:25:07;;;;;;;16.60;9.73;;;;;;;;;;5048405;28;20197;-44
2022/06/08 06:27:33;;;;;;;12.93;8.60;;;;;;;;;;5045291;28;20252;-44
2022/06/08 06:29:59;;;;;;;11.70;8.33;;;;;;;;;;5045125;28;20186;-44
2022/06/08 06:32:27;;;;;;;11.60;9.13;;;;;;;;;;5047479;28;20179;-44
2022/06/08 06:34:54;;;;;;;11.03;8.50;;;;;;;;;;5048099;28;20175;-44
2022/06/08 06:37:20;;;;;;;16.23;10.03;;;;;;;;;;5049801;28;20178;-44
2022/06/08 06:39:47;;;;;;;13.87;8.63;;;;;;;;;;5047112;28;20182;-44
2022/06/08 06:42:17;;;;;;;12.67;9.43;;;;;;;;;;5045895;28;21351;-44
2022/06/08 06:44:44;;;;;;;12.00;8.87;;;;;;;;;;5049919;28;20168;-44
2022/06/08 06:47:10;;;;;;;13.50;8.90;;;;;;;;;;5049201;28;20257;-44
2022/06/08 06:49:36;;;;;;;12.60;9.60;;;;;;;;;;5043701;28;20214;-44
2022/06/08 06:52:02;;;;;;;17.00;10.70;;;;;;;;;;5045077;28;20380;-44
2022/06/08 06:54:28;;;;;;;16.13;11.40;;;;;;;;;;5042029;28;20583;-44
2022/06/08 06:56:54;;;;;;;14.57;10.40;;;;;;;;;;5045882;28;21075;-45
2022/06/08 06:59:21;;;;;;;16.27;9.67;;;;;;;;;;5050569;28;20247;-44
2022/06/08 07:01:48;;;;;;;17.20;11.47;;;;;;;;;;5045242;28;20186;-44
2022/06/08 07:04:14;;;;;;;16.73;12.23;;;;;;;;;;5045444;28;20958;-44
2022/06/08 07:06:40;;;;;;;17.07;11.70;;;;;;;;;;5046777;28;21253;-45
2022/06/08 07:09:06;;;;;;;18.43;11.60;;;;;;;;;;5047061;28;20171;-44
2022/06/08 07:11:32;;;;;;;14.63;12.27;;;;;;;;;;5046317;28;20182;-44
2022/06/08 07:13:59;;;;;;;20.90;13.87;;;;;;;;;;5043240;28;20712;-44
2022/06/08 07:16:25;;;;;;;18.27;13.97;;;;;;;;;;5045329;28;20737;-44
2022/06/08 07:18:51;;;;;;;15.00;12.40;;;;;;;;;;5053272;28;20215;-44
2022/06/08 07:21:18;;;;;;;18.23;13.00;;;;;;;;;;5049766;28;20190;-44
2022/06/08 07:23:44;;;;;;;18.67;14.23;;;;;;;;;;5050073;28;20178;-42
2022/06/08 07:26:11;;;;;;;17.93;13.57;;;;;;;;;;5055903;28;20223;-42
2022/06/08 07:28:38;;;;;;;19.50;14.30;;;;;;;;;;5051430;28;20791;-43
2022/06/08 07:31:04;;;;;;;18.87;12.53;;;;;;;;;;5051085;28;22051;-45
2022/06/08 07:33:30;;;;;;;17.57;12.80;;;;;;;;;;5051706;28;20847;-45
2022/06/08 07:35:57;;;;;;;15.33;12.20;;;;;;;;;;5052025;28;20713;-45
2022/06/08 07:38:24;;;;;;;14.73;11.80;;;;;;;;;;5051063;28;20575;-45
2022/06/08 07:40:50;;;;;;;14.67;10.40;;;;;;;;;;5051828;28;20434;-45
2022/06/08 07:43:16;;;;;;;12.40;9.47;;;;;;;;;;5056336;28;20527;-45
2022/06/08 07:45:43;;;;;;;12.90;9.73;;;;;;;;;;5050848;28;20195;-45
2022/06/08 07:50:53;;;;;;;20.77;10.63;;;;;;;;;;5052959;28;20216;-45
2022/06/08 07:53:19;;;;;;;13.37;10.27;;;;;;;;;;5054203;28;20162;-45
2022/06/08 07:55:45;;;;;;;14.10;10.37;;;;;;;;;;5052672;28;20171;-45
2022/06/08 07:58:12;;;;;;;17.90;8.90;;;;;;;;;;5052206;28;20567;-45
2022/06/08 08:00:38;;;;;;;12.13;7.73;;;;;;;;;;5052955;28;20191;-45
2022/06/08 08:03:04;;;;;;;10.33;7.90;;;;;;;;;;5049480;28;20988;-45
2022/06/08 08:05:31;;;;;;;13.87;8.23;;;;;;;;;;5050066;28;20191;-45
2022/06/08 08:07:57;;;;;;;10.40;7.43;;;;;;;;;;5053871;28;21250;-45
2022/06/08 08:10:24;;;;;;;12.00;8.90;;;;;;;;;;5049784;28;21003;-45
2022/06/08 08:12:55;;;;;;;9.87;7.03;;;;;;;;;;5052711;28;20677;-45
2022/06/08 08:15:21;;;;;;;10.50;7.20;;;;;;;;;;5052436;28;20194;-45
2022/06/08 08:17:47;;;;;;;10.77;7.20;;;;;;;;;;5058355;28;20280;-45
2022/06/08 08:20:14;;;;;;;9.97;6.43;;;;;;;;;;5056493;28;20174;-44
2022/06/08 08:22:41;;;;;;;12.63;7.97;;;;;;;;;;5053430;28;20317;-45
2022/06/08 08:25:09;;;;;;;11.83;7.80;;;;;;;;;;5058489;28;20688;-45
2022/06/08 08:27:35;;;;;;;13.90;8.83;;;;;;;;;;5055976;28;20185;-45
2022/06/08 08:30:01;;;;;;;11.10;8.37;;;;;;;;;;5058853;28;20577;-45
2022/06/08 08:32:27;;;;;;;10.57;8.37;;;;;;;;;;5058622;28;20186;-45
2022/06/08 08:34:53;;;;;;;11.00;9.20;;;;;;;;;;5062288;28;20174;-45
2022/06/08 08:37:20;;;;;;;10.20;8.67;;;;;;;;;;5056135;28;20629;-45
2022/06/08 08:39:46;;;;;;;12.50;8.73;;;;;;;;;;5056531;28;20556;-45
2022/06/08 08:42:22;;;;;;;11.30;9.40;;;;;;;;;;5061221;28;20174;-45
2022/06/08 08:44:51;;;;;;;12.43;9.73;;;;;;;;;;5058021;28;21134;-45
2022/06/08 08:47:17;;;;;;;13.20;8.07;;;;;;;;;;5070938;27;20400;-45
2022/06/08 08:49:46;;;;;;;12.80;10.13;;;;;;;;;;5054505;28;20178;-45
2022/06/08 08:52:22;;;;;;;12.03;9.10;;;;;;;;;;5053120;28;20190;-45
2022/06/08 08:54:54;;;;;;;12.07;9.13;;;;;;;;;;5051677;28;20504;-45
2022/06/08 08:57:24;;;;;;;13.23;9.97;;;;;;;;;;5051702;28;20178;-45
2022/06/08 08:59:50;;;;;;;11.50;9.10;;;;;;;;;;5054716;28;20248;-45
2022/06/08 09:03:14;;;;;;;10.77;8.90;;;;;;;;;;5050885;28;20178;-44
2022/06/08 09:05:14;;;;;;;11.57;9.70;;;;;;;;;;5054746;28;20187;-45
2022/06/08 09:07:40;;;;;;;11.33;9.57;;;;;;;;;;5054530;28;20171;-45
2022/06/08 09:10:07;;;;;;;12.80;9.30;;;;;;;;;;5050907;28;20700;-43
2022/06/08 09:12:33;;;;;;;11.63;8.40;;;;;;;;;;5055232;28;20246;-43
2022/06/08 09:15:01;;;;;;;10.53;9.07;;;;;;;;;;5054726;28;20175;-43
2022/06/08 09:17:50;;;;;;;12.33;9.40;;;;;;;;;;5053766;28;20734;-43
2022/06/08 09:20:26;;;;;;;11.30;9.50;;;;;;;;;;5056693;28;20706;-46
2022/06/08 09:22:54;;;;;;;12.07;9.13;;;;;;;;;;5062233;28;20281;-44
2022/06/08 09:25:26;;;;;;;9.60;8.53;;;;;;;;;;5063760;28;20202;-44
2022/06/08 09:27:53;;;;;;;9.07;7.33;;;;;;;;;;5063705;28;20186;-43
2022/06/08 09:30:32;;;;;;;11.23;9.07;;;;;;;;;;5061360;28;20195;-44
2022/06/08 09:32:59;;;;;;;8.20;7.17;;;;;;;;;;5052926;28;20175;-43
2022/06/08 09:35:30;;;;;;;7.40;6.47;;;;;;;;;;5053046;28;20796;-42
2022/06/08 09:38:02;;;;;;;11.90;8.00;;;;;;;;;;5055505;28;20197;-42
2022/06/08 09:40:40;;;;;;;11.20;7.80;;;;;;;;;;5055471;28;20738;-43
2022/06/08 09:43:07;;;;;;;8.00;6.70;;;;;;;;;;5053331;28;20187;-42
2022/06/08 09:45:47;;;;;;;12.63;8.10;;;;;;;;;;5055502;28;20411;-43
2022/06/08 09:51:36;;;;;;;8.57;7.20;;;;;;;;;;5034779;28;20228;-44
2022/06/08 09:54:08;;;;;;;11.27;6.23;;;;;;;;;;5068365;28;20188;-43
2022/06/08 09:56:44;;;;;;;10.90;6.60;;;;;;;;;;5051635;28;20174;-43
2022/06/08 09:59:23;;;;;;;6.53;5.50;;;;;;;;;;5051669;28;20169;-43
2022/06/08 10:01:49;;;;;;;9.10;6.23;;;;;;;;;;5054651;28;20174;-43
2022/06/08 10:04:34;;;;;;;7.83;6.13;;;;;;;;;;5052535;28;20240;-43
2022/06/08 10:07:00;;;;;;;6.87;5.13;;;;;;;;;;5049095;28;20195;-43
2022/06/08 10:09:51;;;;;;;7.47;6.00;;;;;;;;;;5050981;28;20178;-44
2022/06/08 10:12:26;;;;;;;8.40;5.90;;;;;;;;;;5067855;28;20171;-43
2022/06/08 10:15:02;;;;;;;8.63;6.20;;;;;;;;;;5050981;28;20190;-43
2022/06/08 10:17:40;;;;;;;9.60;5.73;;;;;;;;;;5048245;28;20590;-43
2022/06/08 10:20:12;;;;;;;8.73;5.77;;;;;;;;;;5052795;28;20179;-43
2022/06/08 10:22:58;;;;;;;8.73;5.43;;;;;;;;;;5050515;28;20703;-43
2022/06/08 10:25:46;;;;;;;6.50;5.60;;;;;;;;;;5052879;28;20724;-42
2022/06/08 10:28:38;;;;;;;7.20;5.27;;;;;;;;;;5048359;28;20175;-43
2022/06/08 10:31:16;;;;;;;6.90;4.17;;;;;;;;;;5050921;28;20190;-43
2022/06/08 10:33:56;;;;;;;8.23;4.47;;;;;;;;;;5052467;28;20876;-43
2022/06/08 10:36:23;;;;;;;6.50;4.93;;;;;;;;;;5054324;28;20538;-43
2022/06/08 10:38:49;;;;;;;6.47;4.40;;;;;;;;;;5055197;28;20175;-43
2022/06/08 10:44:02;;;;;;;6.20;4.57;;;;;;;;;;5050898;28;20182;-43
2022/06/08 10:46:48;;;;;;;6.60;4.80;;;;;;;;;;5057247;28;20607;-43
2022/06/08 10:49:40;;;;;;;8.67;4.37;;;;;;;;;;5054254;28;20177;-45
2022/06/08 10:52:12;;;;;;;6.23;3.33;;;;;;;;;;5052349;28;20246;-44
2022/06/08 10:54:54;;;;;;;6.53;4.20;;;;;;;;;;5054863;28;20641;-44
2022/06/08 10:57:32;;;;;;;4.80;3.10;;;;;;;;;;5057336;28;20389;-44
2022/06/08 11:00:21;;;;;;;3.83;2.57;;;;;;;;;;5053005;28;20190;-44
2022/06/08 11:02:55;;;;;;;4.33;2.90;;;;;;;;;;5060264;28;20607;-44
2022/06/08 11:05:36;;;;;;;5.37;2.90;;;;;;;;;;5060518;28;20273;-44
2022/06/08 11:08:04;;;;;;;3.00;2.70;;;;;;;;;;5058255;28;20175;-45
2022/06/08 11:10:50;;;;;;;5.53;2.50;;;;;;;;;;5054838;28;20172;-42
2022/06/08 11:13:25;;;;;;;5.53;2.90;;;;;;;;;;5057036;28;20801;-44
2022/06/08 11:15:55;;;;;;;4.43;3.10;;;;;;;;;;5054488;28;20192;-44
2022/06/08 11:18:24;;;;;;;3.27;2.10;;;;;;;;;;5057960;28;20180;-44
2022/06/08 11:21:10;;;;;;;5.10;2.10;;;;;;;;;;5054941;28;20206;-44
2022/06/08 11:23:43;;;;;;;3.97;2.73;;;;;;;;;;5032125;28;20633;-44
2022/06/08 11:26:10;;;;;;;2.40;2.20;;;;;;;;;;5056679;28;20228;-44
2022/06/08 11:28:36;;;;;;;4.07;2.03;;;;;;;;;;5053515;28;20278;-44
2022/06/08 11:31:04;;;;;;;3.40;2.30;;;;;;;;;;5056285;28;20299;-44
2022/06/08 11:33:48;;;;;;;2.57;2.00;;;;;;;;;;5056206;28;20206;-44
2022/06/08 11:36:20;;;;;;;2.43;1.97;;;;;;;;;;5054135;28;20260;-44
2022/06/08 11:39:01;;;;;;;3.00;2.13;;;;;;;;;;5052129;28;20213;-44
2022/06/08 11:41:38;;;;;;;2.90;2.03;;;;;;;;;;5060391;28;20623;-44
2022/06/08 11:44:18;;;;;;;3.33;1.77;;;;;;;;;;5054691;28;20323;-44
2022/06/08 11:46:53;;;;;;;3.87;2.10;;;;;;;;;;5053283;28;20202;-44
2022/06/08 11:49:26;;;;;;;3.83;1.97;;;;;;;;;;5055508;28;20568;-44
2022/06/08 11:51:52;;;;;;;4.60;2.03;;;;;;;;;;5057486;28;20179;-42
2022/06/08 11:54:31;;;;;;;6.43;2.17;;;;;;;;;;5049253;28;20528;-43
2022/06/08 11:57:11;;;;;;;3.43;1.97;;;;;;;;;;5055507;28;20272;-44
2022/06/08 11:59:38;;;;;;;5.10;2.07;;;;;;;;;;5055907;28;20181;-43
2022/06/08 12:02:16;;;;;;;6.23;2.10;;;;;;;;;;5054966;28;20179;-43
2022/06/08 12:04:44;;;;;;;3.50;1.90;;;;;;;;;;5050637;28;20211;-43
2022/06/08 12:07:28;;;;;;;2.80;2.10;;;;;;;;;;5050526;28;20195;-43
2022/06/08 12:09:55;;;;;;;3.87;1.70;;;;;;;;;;5050173;28;20258;-42
2022/06/08 12:12:23;;;;;;;3.83;1.90;;;;;;;;;;5052848;28;20278;-43
2022/06/08 12:14:49;;;;;;;3.10;1.50;;;;;;;;;;5054121;28;20178;-43
2022/06/08 12:17:15;;;;;;;2.03;1.60;;;;;;;;;;5053281;28;20237;-43
2022/06/08 12:19:41;;;;;;;2.57;1.60;;;;;;;;;;5049369;28;20184;-43
2022/06/08 12:22:18;;;;;;;2.60;1.77;;;;;;;;;;5050691;28;20179;-43
2022/06/08 12:24:45;;;;;;;4.53;1.67;;;;;;;;;;5050074;28;21044;-43
2022/06/08 12:27:18;;;;;;;2.20;1.40;;;;;;;;;;5050136;28;20237;-43
2022/06/08 12:30:02;;;;;;;2.90;1.53;;;;;;;;;;5049186;28;20564;-43
2022/06/08 12:32:36;;;;;;;1.27;1.10;;;;;;;;;;5049727;28;20171;-43
2022/06/08 12:35:05;;;;;;;3.67;1.40;;;;;;;;;;5049927;28;20279;-43
2022/06/08 12:37:37;;;;;;;4.40;1.50;;;;;;;;;;5050455;28;20221;-43
2022/06/08 12:40:15;;;;;;;1.80;1.53;;;;;;;;;;5052017;28;20617;-42
2022/06/08 12:43:00;;;;;;;2.90;1.40;;;;;;;;;;5053393;28;21011;-43
2022/06/08 12:45:33;;;;;;;3.70;1.50;;;;;;;;;;5050865;28;20202;-43
2022/06/08 12:48:00;;;;;;;7.37;1.57;;;;;;;;;;5048755;28;20171;-44
2022/06/08 12:50:29;;;;;;;4.53;1.53;;;;;;;;;;5055255;28;20931;-43
2022/06/08 12:52:56;;;;;;;1.50;1.27;;;;;;;;;;5047876;28;20180;-43
2022/06/08 12:55:26;;;;;;;2.53;1.57;;;;;;;;;;5052033;28;20609;-42
2022/06/08 12:57:52;;;;;;;1.80;1.30;;;;;;;;;;5048623;28;20754;-42
2022/06/08 13:00:20;;;;;;;2.53;1.67;;;;;;;;;;5046720;28;20417;-42
2022/06/08 13:02:46;;;;;;;3.47;1.37;;;;;;;;;;5044211;28;20217;-42
2022/06/08 13:05:18;;;;;;;2.27;1.40;;;;;;;;;;5049760;28;20175;-42
2022/06/08 13:07:45;;;;;;;4.30;1.57;;;;;;;;;;5047343;28;20638;-42
2022/06/08 13:10:11;;;;;;;1.67;1.50;;;;;;;;;;5044594;28;20171;-44
2022/06/08 13:12:39;;;;;;;2.33;1.30;;;;;;;;;;5046607;28;20600;-42
2022/06/08 13:15:16;;;;;;;2.60;1.27;;;;;;;;;;5047098;28;20197;-42
2022/06/08 13:17:42;;;;;;;2.70;1.40;;;;;;;;;;5047130;28;20182;-43
2022/06/08 13:20:17;;;;;;;2.13;1.33;;;;;;;;;;5050489;28;20599;-42
2022/06/08 13:22:43;;;;;;;4.83;1.40;;;;;;;;;;5050218;28;20171;-42
2022/06/08 13:25:10;;;;;;;3.37;1.37;;;;;;;;;;5049426;28;20295;-44
2022/06/08 13:27:36;;;;;;;4.10;1.10;;;;;;;;;;5053663;28;20595;-42
2022/06/08 13:30:03;;;;;;;3.50;1.20;;;;;;;;;;5047457;28;20303;-40
2022/06/08 13:32:29;;;;;;;2.47;1.17;;;;;;;;;;5049828;28;20172;-42
2022/06/08 13:34:55;;;;;;;2.07;1.27;;;;;;;;;;5049366;28;20179;-41
2022/06/08 13:37:31;;;;;;;2.17;1.30;;;;;;;;;;5050188;28;20585;-42
2022/06/08 13:39:57;;;;;;;2.80;1.40;;;;;;;;;;5051193;28;20186;-45
2022/06/08 13:42:24;;;;;;;4.23;1.10;;;;;;;;;;5049087;28;20584;-42
2022/06/08 13:44:51;;;;;;;6.00;1.27;;;;;;;;;;5049686;28;20191;-42
2022/06/08 13:47:20;;;;;;;2.03;1.10;;;;;;;;;;5049878;28;20210;-42
2022/06/08 13:49:50;;;;;;;3.53;1.30;;;;;;;;;;5052653;28;20654;-42
2022/06/08 13:52:18;;;;;;;4.10;1.20;;;;;;;;;;5045847;28;20211;-44
2022/06/08 13:54:46;;;;;;;1.37;1.23;;;;;;;;;;5045590;28;20281;-43
2022/06/08 13:57:14;;;;;;;2.80;1.20;;;;;;;;;;5049624;28;20208;-43
2022/06/08 13:59:41;;;;;;;2.70;1.10;;;;;;;;;;5051042;28;20251;-43
2022/06/08 14:02:22;;;;;;;2.50;1.07;;;;;;;;;;5051027;28;20265;-43
2022/06/08 14:04:50;;;;;;;2.10;1.13;;;;;;;;;;5047352;28;20753;-43
2022/06/08 14:12:59;;;;;;;1.50;1.00;;;;;;;;;;5050485;28;20244;-43
2022/06/08 14:13:16;;;;;;;2.93;1.17;;;;;;;;;;5046619;28;20298;-43
2022/06/08 14:15:44;;;;;;;1.13;1.00;;;;;;;;;;5049076;28;20214;-43
2022/06/08 14:18:15;;;;;;;2.27;1.20;;;;;;;;;;5049966;28;20198;-43
2022/06/08 14:20:41;;;;;;;1.30;0.87;;;;;;;;;;5049054;28;20527;-44
2022/06/08 14:23:11;;;;;;;1.37;0.87;;;;;;;;;;5048202;28;20211;-44
2022/06/08 14:25:38;;;;;;;2.43;0.90;;;;;;;;;;5047645;28;20195;-44
2022/06/08 14:28:04;;;;;;;1.53;1.00;;;;;;;;;;5041914;28;20705;-44
2022/06/08 14:30:30;;;;;;;13.97;1.30;;;;;;;;;;5048961;28;20323;-44
2022/06/08 14:32:58;;;;;;;1.77;0.97;;;;;;;;;;5045848;28;20183;-44
2022/06/08 14:35:30;;;;;;;1.57;1.00;;;;;;;;;;5046436;28;20547;-44
2022/06/08 14:37:57;;;;;;;1.73;1.10;;;;;;;;;;5048500;28;20803;-43
2022/06/08 14:40:30;;;;;;;3.03;1.00;;;;;;;;;;5045519;28;20692;-43
2022/06/08 14:42:56;;;;;;;1.53;0.90;;;;;;;;;;5044133;28;20686;-44
2022/06/08 14:45:23;;;;;;;5.17;1.20;;;;;;;;;;5048643;28;20167;-44
2022/06/08 14:47:50;;;;;;;1.60;1.13;;;;;;;;;;5051924;28;20277;-44
2022/06/08 14:50:18;;;;;;;3.70;1.37;;;;;;;;;;5044440;28;20682;-44
2022/06/08 14:52:45;;;;;;;2.73;1.00;;;;;;;;;;5042887;28;20690;-44
2022/06/08 14:58:00;;;;;;;1.70;1.30;;;;;;;;;;5040043;28;20233;-44
2022/06/08 15:00:26;;;;;;;2.30;1.33;;;;;;;;;;5042414;28;20938;-43
2022/06/08 15:02:52;;;;;;;4.57;1.20;;;;;;;;;;5044232;28;20183;-43
2022/06/08 15:05:19;;;;;;;5.13;1.20;;;;;;;;;;5046935;28;20667;-43